sensor_id;sensor_type;location;lat;lon;timestamp;pressure;altitude;pressure_sealevel;temperature;humidity
56052;BME280;41919;42.648;23.384;2023-01-25T00:01:58;95657.31;;;1.76;88.42
56052;BME280;41919;42.648;23.384;2023-01-25T00:04:24;95679.63;;;1.87;88.60
56052;BME280;41919;42.648;23.384;2023-01-25T00:06:50;95671.91;;;1.87;88.53
56052;BME280;41919;42.648;23.384;2023-01-25T00:09:16;95674.94;;;1.92;88.85
56052;BME280;41919;42.648;23.384;2023-01-25T00:11:43;95675.88;;;1.91;89.07
56052;BME280;41919;42.648;23.384;2023-01-25T00:14:12;95684.50;;;2.13;88.87
56052;BME280;41919;42.648;23.384;2023-01-25T00:16:38;95664.47;;;2.05;88.40
56052;BME280;41919;42.648;23.384;2023-01-25T00:19:05;95677.38;;;2.05;87.88
56052;BME280;41919;42.648;23.384;2023-01-25T00:21:31;95598.47;;;1.49;87.93
56052;BME280;41919;42.648;23.384;2023-01-25T00:23:59;95676.84;;;1.90;88.90
56052;BME280;41919;42.648;23.384;2023-01-25T00:26:24;95654.25;;;1.83;89.66
56052;BME280;41919;42.648;23.384;2023-01-25T00:28:51;95660.97;;;1.95;89.76
56052;BME280;41919;42.648;23.384;2023-01-25T00:31:37;95675.03;;;2.02;89.40
56052;BME280;41919;42.648;23.384;2023-01-25T00:39:17;95593.31;;;1.49;89.02
56052;BME280;41919;42.648;23.384;2023-01-25T00:41:43;95678.69;;;2.00;89.06
56052;BME280;41919;42.648;23.384;2023-01-25T00:44:08;95607.34;;;1.56;88.79
56052;BME280;41919;42.648;23.384;2023-01-25T00:46:34;95657.81;;;1.91;88.78
56052;BME280;41919;42.648;23.384;2023-01-25T00:49:00;95609.19;;;1.66;88.64
56052;BME280;41919;42.648;23.384;2023-01-25T00:51:25;95672.91;;;2.07;87.82
56052;BME280;41919;42.648;23.384;2023-01-25T00:53:51;95675.91;;;2.12;87.96
56052;BME280;41919;42.648;23.384;2023-01-25T00:56:17;95604.16;;;1.64;88.27
56052;BME280;41919;42.648;23.384;2023-01-25T00:58:42;95678.38;;;2.14;88.54
56052;BME280;41919;42.648;23.384;2023-01-25T01:01:08;95651.13;;;2.00;88.32
56052;BME280;41919;42.648;23.384;2023-01-25T01:03:34;95668.28;;;2.11;87.68
56052;BME280;41919;42.648;23.384;2023-01-25T01:06:01;95672.28;;;2.15;87.21
56052;BME280;41919;42.648;23.384;2023-01-25T01:08:27;95618.28;;;1.81;87.21
56052;BME280;41919;42.648;23.384;2023-01-25T01:10:58;95626.78;;;1.61;86.49
56052;BME280;41919;42.648;23.384;2023-01-25T01:13:24;95610.06;;;1.44;86.33
56052;BME280;41919;42.648;23.384;2023-01-25T01:15:49;95668.56;;;1.75;86.81
56052;BME280;41919;42.648;23.384;2023-01-25T01:18:15;95676.38;;;1.85;86.57
56052;BME280;41919;42.648;23.384;2023-01-25T01:20:40;95678.88;;;1.75;87.08
56052;BME280;41919;42.648;23.384;2023-01-25T01:23:05;95635.47;;;1.60;87.17
56052;BME280;41919;42.648;23.384;2023-01-25T01:25:31;95591.72;;;1.37;87.02
56052;BME280;41919;42.648;23.384;2023-01-25T01:27:57;95668.88;;;1.82;87.01
56052;BME280;41919;42.648;23.384;2023-01-25T01:30:22;95650.41;;;1.77;86.63
56052;BME280;41919;42.648;23.384;2023-01-25T01:32:50;95591.81;;;1.47;86.33
56052;BME280;41919;42.648;23.384;2023-01-25T01:35:15;95652.19;;;1.98;86.35
56052;BME280;41919;42.648;23.384;2023-01-25T01:37:41;95634.97;;;1.98;86.41
56052;BME280;41919;42.648;23.384;2023-01-25T01:40:07;95657.75;;;2.14;86.25
56052;BME280;41919;42.648;23.384;2023-01-25T01:43:04;95643.31;;;1.90;86.88
56052;BME280;41919;42.648;23.384;2023-01-25T01:48:18;95650.75;;;1.40;90.66
56052;BME280;41919;42.648;23.384;2023-01-25T01:50:47;95656.84;;;1.16;92.69
56052;BME280;41919;42.648;23.384;2023-01-25T01:53:15;95551.25;;;0.28;93.91
56052;BME280;41919;42.648;23.384;2023-01-25T01:55:41;95650.06;;;0.82;94.81
56052;BME280;41919;42.648;23.384;2023-01-25T01:58:07;95513.03;;;0.01;94.69
56052;BME280;41919;42.648;23.384;2023-01-25T02:00:35;95634.03;;;0.67;94.89
56052;BME280;41919;42.648;23.384;2023-01-25T02:03:02;95653.13;;;0.87;95.10
56052;BME280;41919;42.648;23.384;2023-01-25T02:08:05;95572.88;;;0.25;95.04
56052;BME280;41919;42.648;23.384;2023-01-25T02:10:33;95566.91;;;0.25;94.71
56052;BME280;41919;42.648;23.384;2023-01-25T02:13:00;95644.91;;;0.70;94.75
56052;BME280;41919;42.648;23.384;2023-01-25T02:15:27;95598.13;;;0.31;93.96
56052;BME280;41919;42.648;23.384;2023-01-25T02:17:56;95600.47;;;0.23;95.14
56052;BME280;41919;42.648;23.384;2023-01-25T02:20:26;95648.31;;;0.60;96.30
56052;BME280;41919;42.648;23.384;2023-01-25T02:25:36;95595.66;;;0.30;96.60
56052;BME280;41919;42.648;23.384;2023-01-25T02:28:13;95635.81;;;0.77;95.32
56052;BME280;41919;42.648;23.384;2023-01-25T02:30:42;95642.13;;;0.85;94.51
56052;BME280;41919;42.648;23.384;2023-01-25T02:33:08;95627.72;;;0.93;93.40
56052;BME280;41919;42.648;23.384;2023-01-25T02:38:05;95635.06;;;1.09;92.05
56052;BME280;41919;42.648;23.384;2023-01-25T02:40:37;95637.63;;;1.21;91.88
56052;BME280;41919;42.648;23.384;2023-01-25T02:43:05;95578.94;;;0.92;91.02
56052;BME280;41919;42.648;23.384;2023-01-25T02:45:30;95576.47;;;1.02;90.98
56052;BME280;41919;42.648;23.384;2023-01-25T02:47:56;95639.47;;;1.52;90.22
56052;BME280;41919;42.648;23.384;2023-01-25T02:50:22;95577.28;;;1.02;89.94
56052;BME280;41919;42.648;23.384;2023-01-25T02:52:47;95579.63;;;0.94;90.87
56052;BME280;41919;42.648;23.384;2023-01-25T02:55:13;95641.28;;;1.07;91.33
56052;BME280;41919;42.648;23.384;2023-01-25T02:57:38;95640.94;;;1.11;92.20
56052;BME280;41919;42.648;23.384;2023-01-25T03:00:04;95559.44;;;0.55;92.14
56052;BME280;41919;42.648;23.384;2023-01-25T03:02:30;95575.34;;;0.61;92.94
56052;BME280;41919;42.648;23.384;2023-01-25T03:04:55;95566.34;;;0.55;93.53
56052;BME280;41919;42.648;23.384;2023-01-25T03:07:21;95650.41;;;1.00;93.76
56052;BME280;41919;42.648;23.384;2023-01-25T03:09:46;95644.22;;;0.80;95.05
56052;BME280;41919;42.648;23.384;2023-01-25T03:12:12;95647.72;;;0.78;96.17
56052;BME280;41919;42.648;23.384;2023-01-25T03:14:37;95593.44;;;0.25;97.72
56052;BME280;41919;42.648;23.384;2023-01-25T03:17:03;95642.13;;;0.62;98.20
56052;BME280;41919;42.648;23.384;2023-01-25T03:19:29;95583.16;;;0.25;97.92
56052;BME280;41919;42.648;23.384;2023-01-25T03:21:54;95569.69;;;0.10;99.28
56052;BME280;41919;42.648;23.384;2023-01-25T03:24:20;95558.34;;;0.13;99.54
56052;BME280;41919;42.648;23.384;2023-01-25T03:26:45;95634.63;;;0.70;98.37
56052;BME280;41919;42.648;23.384;2023-01-25T03:29:29;95636.50;;;0.80;97.34
56052;BME280;41919;42.648;23.384;2023-01-25T03:31:54;95642.34;;;0.82;96.50
56052;BME280;41919;42.648;23.384;2023-01-25T03:34:20;95579.28;;;0.42;97.38
56052;BME280;41919;42.648;23.384;2023-01-25T03:36:45;95582.22;;;0.37;96.58
56052;BME280;41919;42.648;23.384;2023-01-25T03:39:11;95630.06;;;0.74;97.06
56052;BME280;41919;42.648;23.384;2023-01-25T03:41:36;95647.50;;;0.82;97.09
56052;BME280;41919;42.648;23.384;2023-01-25T03:44:01;95644.13;;;1.04;97.01
56052;BME280;41919;42.648;23.384;2023-01-25T03:46:27;95645.13;;;1.24;94.80
56052;BME280;41919;42.648;23.384;2023-01-25T03:48:52;95631.66;;;1.31;93.49
56052;BME280;41919;42.648;23.384;2023-01-25T03:51:18;95634.19;;;1.54;91.55
56052;BME280;41919;42.648;23.384;2023-01-25T03:53:43;95633.47;;;1.63;90.19
56052;BME280;41919;42.648;23.384;2023-01-25T03:56:10;95612.28;;;1.60;89.17
56052;BME280;41919;42.648;23.384;2023-01-25T03:58:37;95554.28;;;1.33;88.27
56052;BME280;41919;42.648;23.384;2023-01-25T04:01:04;95561.97;;;1.44;87.80
56052;BME280;41919;42.648;23.384;2023-01-25T04:03:30;95626.09;;;1.91;88.06
56052;BME280;41919;42.648;23.384;2023-01-25T04:05:57;95568.31;;;1.40;87.24
56052;BME280;41919;42.648;23.384;2023-01-25T04:08:23;95633.53;;;1.73;86.83
56052;BME280;41919;42.648;23.384;2023-01-25T04:10:59;95617.47;;;1.37;87.77
56052;BME280;41919;42.648;23.384;2023-01-25T04:13:25;95626.09;;;1.47;87.84
56052;BME280;41919;42.648;23.384;2023-01-25T04:15:50;95628.72;;;1.36;87.71
56052;BME280;41919;42.648;23.384;2023-01-25T04:18:16;95617.63;;;1.13;88.01
56052;BME280;41919;42.648;23.384;2023-01-25T04:20:43;95549.88;;;0.46;90.04
56052;BME280;41919;42.648;23.384;2023-01-25T04:23:09;95610.41;;;0.84;90.24
56052;BME280;41919;42.648;23.384;2023-01-25T04:25:34;95548.09;;;0.58;90.40
56052;BME280;41919;42.648;23.384;2023-01-25T04:28:00;95565.63;;;0.75;89.20
56052;BME280;41919;42.648;23.384;2023-01-25T04:30:25;95562.34;;;0.85;87.27
56052;BME280;41919;42.648;23.384;2023-01-25T04:32:51;95609.09;;;1.01;87.03
56052;BME280;41919;42.648;23.384;2023-01-25T04:35:17;95630.19;;;1.06;87.32
56052;BME280;41919;42.648;23.384;2023-01-25T04:37:57;95636.03;;;0.97;87.78
56052;BME280;41919;42.648;23.384;2023-01-25T04:40:24;95614.41;;;0.77;87.84
56052;BME280;41919;42.648;23.384;2023-01-25T04:42:50;95558.13;;;0.16;89.41
56052;BME280;41919;42.648;23.384;2023-01-25T04:45:15;95620.13;;;0.47;91.01
56052;BME280;41919;42.648;23.384;2023-01-25T04:47:41;95637.66;;;0.64;89.68
56052;BME280;41919;42.648;23.384;2023-01-25T04:50:06;95640.94;;;0.66;88.64
56052;BME280;41919;42.648;23.384;2023-01-25T04:52:32;95563.84;;;0.08;88.74
56052;BME280;41919;42.648;23.384;2023-01-25T04:54:57;95555.91;;;0.00;89.41
56052;BME280;41919;42.648;23.384;2023-01-25T04:57:23;95636.03;;;0.63;88.33
56052;BME280;41919;42.648;23.384;2023-01-25T04:59:48;95644.34;;;0.78;88.09
56052;BME280;41919;42.648;23.384;2023-01-25T05:02:14;95563.31;;;0.38;86.85
56052;BME280;41919;42.648;23.384;2023-01-25T05:04:39;95629.72;;;0.90;86.07
56052;BME280;41919;42.648;23.384;2023-01-25T05:07:05;95639.78;;;1.04;85.92
56052;BME280;41919;42.648;23.384;2023-01-25T05:09:30;95580.59;;;0.82;85.26
56052;BME280;41919;42.648;23.384;2023-01-25T05:11:56;95562.69;;;0.80;84.64
56052;BME280;41919;42.648;23.384;2023-01-25T05:14:21;95634.22;;;1.31;83.80
56052;BME280;41919;42.648;23.384;2023-01-25T05:16:46;95616.56;;;1.27;83.44
56052;BME280;41919;42.648;23.384;2023-01-25T05:19:12;95532.75;;;0.90;82.48
56052;BME280;41919;42.648;23.384;2023-01-25T05:21:37;95623.06;;;1.53;82.02
56052;BME280;41919;42.648;23.384;2023-01-25T05:24:22;95546.16;;;0.94;82.61
56052;BME280;41919;42.648;23.384;2023-01-25T05:26:48;95610.59;;;1.26;82.23
56052;BME280;41919;42.648;23.384;2023-01-25T05:29:37;95630.72;;;1.32;82.61
56052;BME280;41919;42.648;23.384;2023-01-25T05:32:06;95635.03;;;1.32;83.16
56052;BME280;41919;42.648;23.384;2023-01-25T05:34:32;95554.25;;;0.89;83.05
56052;BME280;41919;42.648;23.384;2023-01-25T05:36:59;95572.88;;;0.93;83.82
56052;BME280;41919;42.648;23.384;2023-01-25T05:39:25;95545.16;;;0.85;84.43
56052;BME280;41919;42.648;23.384;2023-01-25T05:41:50;95618.78;;;1.31;83.69
56052;BME280;41919;42.648;23.384;2023-01-25T05:44:15;95631.25;;;1.04;85.93
56052;BME280;41919;42.648;23.384;2023-01-25T05:46:41;95569.97;;;0.64;86.60
56052;BME280;41919;42.648;23.384;2023-01-25T05:49:07;95642.13;;;0.85;88.08
56052;BME280;41919;42.648;23.384;2023-01-25T05:51:32;95623.06;;;0.76;88.25
56052;BME280;41919;42.648;23.384;2023-01-25T05:54:00;95637.09;;;0.72;89.71
56052;BME280;41919;42.648;23.384;2023-01-25T05:56:26;95626.22;;;0.80;89.27
56052;BME280;41919;42.648;23.384;2023-01-25T05:58:53;95641.28;;;0.95;89.03
56052;BME280;41919;42.648;23.384;2023-01-25T06:01:19;95640.94;;;1.00;87.37
56052;BME280;41919;42.648;23.384;2023-01-25T06:03:45;95624.66;;;1.00;87.02
56052;BME280;41919;42.648;23.384;2023-01-25T06:06:10;95637.19;;;1.15;87.79
56052;BME280;41919;42.648;23.384;2023-01-25T06:08:36;95577.53;;;0.76;90.90
56052;BME280;41919;42.648;23.384;2023-01-25T06:11:14;95562.22;;;0.86;91.17
56052;BME280;41919;42.648;23.384;2023-01-25T06:13:39;95572.06;;;0.92;86.74
56052;BME280;41919;42.648;23.384;2023-01-25T06:16:06;95645.69;;;1.39;84.74
56052;BME280;41919;42.648;23.384;2023-01-25T06:18:32;95639.00;;;1.47;83.76
56052;BME280;41919;42.648;23.384;2023-01-25T06:20:59;95633.91;;;1.25;84.24
56052;BME280;41919;42.648;23.384;2023-01-25T06:23:25;95570.88;;;0.96;83.86
56052;BME280;41919;42.648;23.384;2023-01-25T06:25:51;95645.34;;;1.32;84.30
56052;BME280;41919;42.648;23.384;2023-01-25T06:28:18;95573.34;;;0.87;83.75
56052;BME280;41919;42.648;23.384;2023-01-25T06:30:43;95651.34;;;1.32;84.20
56052;BME280;41919;42.648;23.384;2023-01-25T06:33:09;95647.09;;;1.43;84.21
56052;BME280;41919;42.648;23.384;2023-01-25T06:35:34;95569.31;;;1.05;83.48
56052;BME280;41919;42.648;23.384;2023-01-25T06:38:00;95629.75;;;1.45;83.66
56052;BME280;41919;42.648;23.384;2023-01-25T06:40:26;95572.13;;;1.13;83.23
56052;BME280;41919;42.648;23.384;2023-01-25T06:42:52;95646.19;;;1.65;83.54
56052;BME280;41919;42.648;23.384;2023-01-25T06:45:17;95642.13;;;1.62;83.99
56052;BME280;41919;42.648;23.384;2023-01-25T06:47:43;95582.16;;;1.28;84.21
56052;BME280;41919;42.648;23.384;2023-01-25T06:50:11;95638.81;;;1.28;85.75
56052;BME280;41919;42.648;23.384;2023-01-25T06:52:36;95639.06;;;1.25;86.34
56052;BME280;41919;42.648;23.384;2023-01-25T06:55:03;95573.00;;;0.57;87.58
56052;BME280;41919;42.648;23.384;2023-01-25T06:57:30;95598.13;;;0.76;88.24
56052;BME280;41919;42.648;23.384;2023-01-25T06:59:55;95648.19;;;1.06;88.17
56052;BME280;41919;42.648;23.384;2023-01-25T07:02:20;95589.25;;;0.58;88.63
56052;BME280;41919;42.648;23.384;2023-01-25T07:04:46;95653.13;;;0.87;88.94
56052;BME280;41919;42.648;23.384;2023-01-25T07:07:12;95638.13;;;0.58;89.55
56052;BME280;41919;42.648;23.384;2023-01-25T07:09:37;95537.75;;;-0.10;90.52
56052;BME280;41919;42.648;23.384;2023-01-25T07:12:03;95568.28;;;0.29;90.09
56052;BME280;41919;42.648;23.384;2023-01-25T07:14:32;95634.16;;;0.88;89.44
56052;BME280;41919;42.648;23.384;2023-01-25T07:16:58;95651.47;;;0.86;89.06
56052;BME280;41919;42.648;23.384;2023-01-25T07:19:23;95648.19;;;0.95;89.63
56052;BME280;41919;42.648;23.384;2023-01-25T07:21:49;95570.88;;;0.63;89.37
56052;BME280;41919;42.648;23.384;2023-01-25T07:24:16;95609.91;;;1.02;88.49
56052;BME280;41919;42.648;23.384;2023-01-25T07:26:42;95580.34;;;0.96;87.04
56052;BME280;41919;42.648;23.384;2023-01-25T07:29:12;95572.63;;;0.96;86.44
56052;BME280;41919;42.648;23.384;2023-01-25T07:31:37;95586.53;;;0.82;86.94
56052;BME280;41919;42.648;23.384;2023-01-25T07:34:03;95646.88;;;1.34;87.59
56052;BME280;41919;42.648;23.384;2023-01-25T07:36:29;95642.56;;;1.01;88.69
56052;BME280;41919;42.648;23.384;2023-01-25T07:38:55;95642.56;;;1.12;89.59
56052;BME280;41919;42.648;23.384;2023-01-25T07:41:24;95586.31;;;0.74;89.51
56052;BME280;41919;42.648;23.384;2023-01-25T07:43:50;95662.34;;;1.12;90.10
56052;BME280;41919;42.648;23.384;2023-01-25T07:46:16;95650.50;;;1.21;89.74
56052;BME280;41919;42.648;23.384;2023-01-25T07:48:50;95663.28;;;1.22;89.75
56052;BME280;41919;42.648;23.384;2023-01-25T07:51:17;95586.69;;;0.69;89.97
56052;BME280;41919;42.648;23.384;2023-01-25T07:53:59;95588.91;;;0.85;89.55
56052;BME280;41919;42.648;23.384;2023-01-25T07:56:33;95645.47;;;1.30;89.41
56052;BME280;41919;42.648;23.384;2023-01-25T07:59:00;95584.56;;;0.86;89.64
56052;BME280;41919;42.648;23.384;2023-01-25T08:01:29;95643.03;;;1.17;89.65
56052;BME280;41919;42.648;23.384;2023-01-25T08:03:56;95671.19;;;1.42;89.35
56052;BME280;41919;42.648;23.384;2023-01-25T08:06:27;95661.75;;;1.42;89.76
56052;BME280;41919;42.648;23.384;2023-01-25T08:08:56;95642.88;;;1.30;90.06
56052;BME280;41919;42.648;23.384;2023-01-25T08:11:27;95622.66;;;1.14;90.15
56052;BME280;41919;42.648;23.384;2023-01-25T08:13:53;95646.28;;;1.42;90.31
56052;BME280;41919;42.648;23.384;2023-01-25T08:16:24;95573.09;;;0.90;90.19
56052;BME280;41919;42.648;23.384;2023-01-25T08:18:52;95628.75;;;1.25;90.24
56052;BME280;41919;42.648;23.384;2023-01-25T08:21:19;95647.22;;;1.30;90.74
56052;BME280;41919;42.648;23.384;2023-01-25T08:23:45;95661.97;;;1.39;91.18
56052;BME280;41919;42.648;23.384;2023-01-25T08:26:12;95570.63;;;1.00;90.88
56052;BME280;41919;42.648;23.384;2023-01-25T08:28:38;95567.34;;;0.97;90.98
56052;BME280;41919;42.648;23.384;2023-01-25T08:31:05;95653.41;;;1.50;90.92
56052;BME280;41919;42.648;23.384;2023-01-25T08:33:30;95568.72;;;1.02;90.69
56052;BME280;41919;42.648;23.384;2023-01-25T08:35:56;95564.19;;;0.94;91.10
56052;BME280;41919;42.648;23.384;2023-01-25T08:38:22;95634.34;;;1.30;92.19
56052;BME280;41919;42.648;23.384;2023-01-25T08:40:47;95643.91;;;1.50;91.94
56052;BME280;41919;42.648;23.384;2023-01-25T08:43:13;95630.66;;;1.55;91.13
56052;BME280;41919;42.648;23.384;2023-01-25T08:45:38;95565.09;;;1.15;91.09
56052;BME280;41919;42.648;23.384;2023-01-25T08:48:04;95622.59;;;1.48;91.27
56052;BME280;41919;42.648;23.384;2023-01-25T08:50:29;95539.38;;;1.04;91.58
56052;BME280;41919;42.648;23.384;2023-01-25T08:52:55;95573.22;;;1.32;91.06
56052;BME280;41919;42.648;23.384;2023-01-25T08:55:20;95571.00;;;1.39;91.35
56052;BME280;41919;42.648;23.384;2023-01-25T08:57:46;95597.06;;;1.45;91.32
56052;BME280;41919;42.648;23.384;2023-01-25T09:00:11;95650.19;;;1.69;91.29
56052;BME280;41919;42.648;23.384;2023-01-25T09:02:37;95579.69;;;1.26;92.12
56052;BME280;41919;42.648;23.384;2023-01-25T09:05:02;95645.34;;;1.75;92.08
56052;BME280;41919;42.648;23.384;2023-01-25T09:07:28;95641.09;;;1.86;91.82
56052;BME280;41919;42.648;23.384;2023-01-25T09:09:57;95643.34;;;1.79;92.00
56052;BME280;41919;42.648;23.384;2023-01-25T09:12:22;95561.13;;;1.44;92.32
56052;BME280;41919;42.648;23.384;2023-01-25T09:14:48;95604.13;;;1.75;91.71
56052;BME280;41919;42.648;23.384;2023-01-25T09:17:13;95627.34;;;1.96;91.91
56052;BME280;41919;42.648;23.384;2023-01-25T09:19:39;95624.66;;;1.98;91.82
56052;BME280;41919;42.648;23.384;2023-01-25T09:22:06;95612.81;;;1.95;92.74
56052;BME280;41919;42.648;23.384;2023-01-25T09:24:32;95607.91;;;1.92;93.43
56052;BME280;41919;42.648;23.384;2023-01-25T09:26:58;95617.03;;;2.18;92.90
56052;BME280;41919;42.648;23.384;2023-01-25T09:29:24;95617.28;;;2.14;90.20
56052;BME280;41919;42.648;23.384;2023-01-25T09:31:50;95622.22;;;2.18;89.51
56052;BME280;41919;42.648;23.384;2023-01-25T09:34:16;95601.00;;;2.14;89.02
56052;BME280;41919;42.648;23.384;2023-01-25T09:36:42;95533.22;;;1.81;88.90
56052;BME280;41919;42.648;23.384;2023-01-25T09:39:09;95612.28;;;2.34;88.66
56052;BME280;41919;42.648;23.384;2023-01-25T09:47:29;95598.97;;;2.39;85.35
56052;BME280;41919;42.648;23.384;2023-01-25T09:50:34;95590.00;;;2.33;84.63
56052;BME280;41919;42.648;23.384;2023-01-25T09:53:22;95597.34;;;2.38;84.54
56052;BME280;41919;42.648;23.384;2023-01-25T09:55:53;95508.75;;;1.96;84.23
56052;BME280;41919;42.648;23.384;2023-01-25T09:58:26;95585.75;;;2.32;85.04
56052;BME280;41919;42.648;23.384;2023-01-25T10:03:39;95566.13;;;2.41;85.39
56052;BME280;41919;42.648;23.384;2023-01-25T10:06:09;95560.44;;;2.47;83.25
56052;BME280;41919;42.648;23.384;2023-01-25T10:08:56;95564.44;;;2.61;82.68
56052;BME280;41919;42.648;23.384;2023-01-25T10:11:29;95560.94;;;2.31;82.45
56052;BME280;41919;42.648;23.384;2023-01-25T10:13:55;95559.59;;;2.37;82.74
56052;BME280;41919;42.648;23.384;2023-01-25T10:16:40;95547.63;;;2.35;82.95
56052;BME280;41919;42.648;23.384;2023-01-25T10:24:40;95524.88;;;2.50;80.17
56052;BME280;41919;42.648;23.384;2023-01-25T10:29:59;95454.44;;;2.19;78.24
56052;BME280;41919;42.648;23.384;2023-01-25T10:32:28;95531.19;;;2.67;79.22
56052;BME280;41919;42.648;23.384;2023-01-25T10:35:14;95536.53;;;2.75;78.95
56052;BME280;41919;42.648;23.384;2023-01-25T10:37:40;95451.69;;;2.42;78.35
56052;BME280;41919;42.648;23.384;2023-01-25T10:40:20;95529.09;;;2.82;76.95
56052;BME280;41919;42.648;23.384;2023-01-25T10:43:12;95517.84;;;2.52;78.98
56052;BME280;41919;42.648;23.384;2023-01-25T10:45:39;95515.09;;;2.44;78.72
56052;BME280;41919;42.648;23.384;2023-01-25T10:48:12;95512.69;;;2.62;78.03
56052;BME280;41919;42.648;23.384;2023-01-25T10:53:40;95505.97;;;2.81;76.32
56052;BME280;41919;42.648;23.384;2023-01-25T10:56:21;95497.25;;;2.82;76.79
56052;BME280;41919;42.648;23.384;2023-01-25T10:58:50;95501.19;;;2.76;75.80
56052;BME280;41919;42.648;23.384;2023-01-25T11:01:30;95486.94;;;2.82;75.73
56052;BME280;41919;42.648;23.384;2023-01-25T11:03:57;95486.44;;;2.98;75.33
56052;BME280;41919;42.648;23.384;2023-01-25T11:06:37;95418.00;;;2.53;75.29
56052;BME280;41919;42.648;23.384;2023-01-25T11:11:57;95421.72;;;2.70;74.26
56052;BME280;41919;42.648;23.384;2023-01-25T11:14:25;95398.59;;;2.59;74.67
56052;BME280;41919;42.648;23.384;2023-01-25T11:16:52;95386.53;;;2.69;74.19
56052;BME280;41919;42.648;23.384;2023-01-25T11:19:35;95408.69;;;2.91;73.16
56052;BME280;41919;42.648;23.384;2023-01-25T11:22:20;95412.22;;;2.90;72.76
56052;BME280;41919;42.648;23.384;2023-01-25T11:24:48;95474.50;;;3.45;73.54
56052;BME280;41919;42.648;23.384;2023-01-25T11:27:24;95379.34;;;3.02;72.41
56052;BME280;41919;42.648;23.384;2023-01-25T11:30:10;95403.00;;;3.17;72.35
56052;BME280;41919;42.648;23.384;2023-01-25T11:32:39;95463.19;;;3.46;72.34
56052;BME280;41919;42.648;23.384;2023-01-25T11:35:15;95380.41;;;2.80;73.49
56052;BME280;41919;42.648;23.384;2023-01-25T11:38:04;95466.88;;;3.44;72.14
56052;BME280;41919;42.648;23.384;2023-01-25T11:40:36;95463.06;;;3.38;72.43
56052;BME280;41919;42.648;23.384;2023-01-25T11:51:36;95390.22;;;2.86;74.09
56052;BME280;41919;42.648;23.384;2023-01-25T11:56:58;95419.84;;;3.21;73.94
56052;BME280;41919;42.648;23.384;2023-01-25T12:02:48;95422.81;;;3.26;73.90
56052;BME280;41919;42.648;23.384;2023-01-25T12:10:58;95411.56;;;3.17;75.29
56052;BME280;41919;42.648;23.384;2023-01-25T12:24:29;95343.19;;;2.53;75.81
56052;BME280;41919;42.648;23.384;2023-01-25T12:27:10;95413.97;;;2.99;75.65
56052;BME280;41919;42.648;23.384;2023-01-25T12:29:48;95378.25;;;2.85;75.69
56052;BME280;41919;42.648;23.384;2023-01-25T12:32:39;95394.00;;;2.91;75.90
56052;BME280;41919;42.648;23.384;2023-01-25T12:35:27;95380.97;;;2.93;75.66
56052;BME280;41919;42.648;23.384;2023-01-25T12:38:02;95397.13;;;2.75;76.07
56052;BME280;41919;42.648;23.384;2023-01-25T12:43:23;95297.56;;;1.74;77.38
56052;BME280;41919;42.648;23.384;2023-01-25T12:45:52;95398.00;;;2.26;78.86
56052;BME280;41919;42.648;23.384;2023-01-25T12:48:37;95378.56;;;2.22;78.59
56052;BME280;41919;42.648;23.384;2023-01-25T12:51:06;95380.34;;;2.21;78.63
56052;BME280;41919;42.648;23.384;2023-01-25T12:53:36;95361.88;;;2.16;78.52
56052;BME280;41919;42.648;23.384;2023-01-25T12:56:05;95353.19;;;2.17;78.36
56052;BME280;41919;42.648;23.384;2023-01-25T12:58:50;95315.41;;;1.96;78.25
56052;BME280;41919;42.648;23.384;2023-01-25T13:01:36;95379.94;;;2.35;77.60
56052;BME280;41919;42.648;23.384;2023-01-25T13:04:13;95376.00;;;2.31;77.81
56052;BME280;41919;42.648;23.384;2023-01-25T13:07:20;95380.13;;;2.34;77.68
56052;BME280;41919;42.648;23.384;2023-01-25T13:10:12;95355.78;;;2.17;77.68
56052;BME280;41919;42.648;23.384;2023-01-25T13:12:57;95379.56;;;2.30;77.40
56052;BME280;41919;42.648;23.384;2023-01-25T13:15:53;95367.91;;;2.36;76.89
56052;BME280;41919;42.648;23.384;2023-01-25T13:20:59;95359.97;;;2.28;77.26
56052;BME280;41919;42.648;23.384;2023-01-25T13:28:46;95347.75;;;2.20;77.96
56052;BME280;41919;42.648;23.384;2023-01-25T13:33:59;95284.16;;;1.80;77.97
56052;BME280;41919;42.648;23.384;2023-01-25T13:42:02;95364.97;;;2.10;78.71
56052;BME280;41919;42.648;23.384;2023-01-25T13:44:31;95298.56;;;1.83;78.88
56052;BME280;41919;42.648;23.384;2023-01-25T13:47:00;95367.97;;;2.15;78.66
56052;BME280;41919;42.648;23.384;2023-01-25T13:49:35;95351.00;;;2.22;78.79
56052;BME280;41919;42.648;23.384;2023-01-25T13:52:02;95294.22;;;1.93;78.74
56052;BME280;41919;42.648;23.384;2023-01-25T13:54:28;95365.91;;;2.09;78.75
56052;BME280;41919;42.648;23.384;2023-01-25T13:57:12;95363.91;;;2.22;78.45
56052;BME280;41919;42.648;23.384;2023-01-25T13:59:38;95295.00;;;1.74;78.32
56052;BME280;41919;42.648;23.384;2023-01-25T14:02:16;95308.47;;;1.87;78.51
56052;BME280;41919;42.648;23.384;2023-01-25T14:04:45;95360.75;;;2.09;79.34
56052;BME280;41919;42.648;23.384;2023-01-25T14:07:15;95377.22;;;2.18;79.37
56052;BME280;41919;42.648;23.384;2023-01-25T14:09:42;95360.53;;;2.22;79.24
56052;BME280;41919;42.648;23.384;2023-01-25T14:12:09;95296.91;;;1.82;79.15
56052;BME280;41919;42.648;23.384;2023-01-25T14:14:36;95302.19;;;1.80;79.47
56052;BME280;41919;42.648;23.384;2023-01-25T14:19:40;95347.13;;;1.87;79.14
56052;BME280;41919;42.648;23.384;2023-01-25T14:22:17;95312.47;;;1.70;79.33
56052;BME280;41919;42.648;23.384;2023-01-25T14:24:44;95364.91;;;1.90;80.25
56052;BME280;41919;42.648;23.384;2023-01-25T14:27:13;95269.94;;;1.45;80.43
56052;BME280;41919;42.648;23.384;2023-01-25T14:29:39;95225.13;;;1.17;80.76
56052;BME280;41919;42.648;23.384;2023-01-25T14:32:04;95342.50;;;1.81;80.63
56052;BME280;41919;42.648;23.384;2023-01-25T14:34:30;95280.44;;;1.53;80.29
56052;BME280;41919;42.648;23.384;2023-01-25T14:37:19;95352.88;;;2.01;80.72
56052;BME280;41919;42.648;23.384;2023-01-25T14:39:46;95323.78;;;1.79;80.71
56052;BME280;41919;42.648;23.384;2023-01-25T14:42:14;95347.13;;;1.87;80.40